sensor_id;sensor_type;location;lat;lon;timestamp;pressure;altitude;pressure_sealevel;temperature;humidity
10167;BME280;62970;53.130;8.244;2024-02-04T00:02:26;101983.13;;;6.65;67.88
10167;BME280;62970;53.130;8.244;2024-02-04T00:04:56;101983.88;;;6.56;67.99
10167;BME280;62970;53.130;8.244;2024-02-04T00:07:25;101984.63;;;6.48;68.72
10167;BME280;62970;53.130;8.244;2024-02-04T00:09:54;101975.91;;;6.40;68.66
10167;BME280;62970;53.130;8.244;2024-02-04T00:12:21;101961.97;;;6.30;68.65
10167;BME280;62970;53.130;8.244;2024-02-04T00:14:51;101973.06;;;6.21;69.19
10167;BME280;62970;53.130;8.244;2024-02-04T00:17:24;101969.50;;;6.13;69.36
10167;BME280;62970;53.130;8.244;2024-02-04T00:19:57;101968.50;;;6.03;69.21
10167;BME280;62970;53.130;8.244;2024-02-04T00:22:27;101964.97;;;5.97;70.01
10167;BME280;62970;53.130;8.244;2024-02-04T00:24:56;101980.44;;;5.92;69.72
10167;BME280;62970;53.130;8.244;2024-02-04T00:27:30;101978.69;;;5.90;70.41
10167;BME280;62970;53.130;8.244;2024-02-04T00:30:00;101963.97;;;5.87;70.46
10167;BME280;62970;53.130;8.244;2024-02-04T00:32:33;101964.78;;;5.83;70.60
10167;BME280;62970;53.130;8.244;2024-02-04T00:35:02;101952.59;;;5.78;70.70
10167;BME280;62970;53.130;8.244;2024-02-04T00:37:32;101955.13;;;5.73;70.60
10167;BME280;62970;53.130;8.244;2024-02-04T00:40:01;101962.81;;;5.68;70.95
10167;BME280;62970;53.130;8.244;2024-02-04T00:42:31;101953.28;;;5.64;71.15
10167;BME280;62970;53.130;8.244;2024-02-04T00:45:00;101949.78;;;5.62;71.55
10167;BME280;62970;53.130;8.244;2024-02-04T00:47:32;101962.69;;;5.59;71.25
10167;BME280;62970;53.130;8.244;2024-02-04T00:50:01;101964.34;;;5.56;71.33
10167;BME280;62970;53.130;8.244;2024-02-04T00:52:31;101962.59;;;5.53;71.46
10167;BME280;62970;53.130;8.244;2024-02-04T00:55:00;101954.78;;;5.50;71.64
10167;BME280;62970;53.130;8.244;2024-02-04T00:57:29;101962.47;;;5.46;72.09
10167;BME280;62970;53.130;8.244;2024-02-04T01:02:45;101958.03;;;5.38;72.17
10167;BME280;62970;53.130;8.244;2024-02-04T01:05:14;101954.53;;;5.35;72.38
10167;BME280;62970;53.130;8.244;2024-02-04T01:07:43;101956.16;;;5.31;72.48
10167;BME280;62970;53.130;8.244;2024-02-04T01:10:13;101957.84;;;5.29;72.41
10167;BME280;62970;53.130;8.244;2024-02-04T01:12:42;101957.88;;;5.31;72.56
10167;BME280;62970;53.130;8.244;2024-02-04T01:15:12;101958.81;;;5.33;72.79
10167;BME280;62970;53.130;8.244;2024-02-04T01:17:41;101964.03;;;5.36;73.02
10167;BME280;62970;53.130;8.244;2024-02-04T01:20:14;101962.31;;;5.36;72.85
10167;BME280;62970;53.130;8.244;2024-02-04T01:22:44;101964.06;;;5.37;73.25
10167;BME280;62970;53.130;8.244;2024-02-04T01:25:13;101966.66;;;5.39;72.98
10167;BME280;62970;53.130;8.244;2024-02-04T01:27:42;101965.81;;;5.38;73.48
10167;BME280;62970;53.130;8.244;2024-02-04T01:30:12;101969.22;;;5.37;73.08
10167;BME280;62970;53.130;8.244;2024-02-04T01:32:41;101970.94;;;5.37;73.46
10167;BME280;62970;53.130;8.244;2024-02-04T01:35:14;101965.75;;;5.35;73.17
10167;BME280;62970;53.130;8.244;2024-02-04T01:37:44;101962.28;;;5.35;73.79
10167;BME280;62970;53.130;8.244;2024-02-04T01:40:14;101956.22;;;5.33;73.33
10167;BME280;62970;53.130;8.244;2024-02-04T01:42:44;101944.97;;;5.32;73.48
10167;BME280;62970;53.130;8.244;2024-02-04T01:45:13;101940.66;;;5.31;73.63
10167;BME280;62970;53.130;8.244;2024-02-04T01:47:42;101944.91;;;5.29;73.55
10167;BME280;62970;53.130;8.244;2024-02-04T01:50:14;101926.75;;;5.25;73.61
10167;BME280;62970;53.130;8.244;2024-02-04T01:52:45;101929.31;;;5.23;74.01
10167;BME280;62970;53.130;8.244;2024-02-04T01:55:14;101930.09;;;5.19;73.79
10167;BME280;62970;53.130;8.244;2024-02-04T01:57:45;101929.19;;;5.16;73.69
10167;BME280;62970;53.130;8.244;2024-02-04T02:00:17;101925.66;;;5.12;74.11
10167;BME280;62970;53.130;8.244;2024-02-04T02:02:47;101923.88;;;5.08;74.14
10167;BME280;62970;53.130;8.244;2024-02-04T02:05:20;101922.09;;;5.05;73.94
10167;BME280;62970;53.130;8.244;2024-02-04T02:07:50;101926.34;;;5.02;74.04
10167;BME280;62970;53.130;8.244;2024-02-04T02:10:36;101917.66;;;4.97;73.70
10167;BME280;62970;53.130;8.244;2024-02-04T02:13:15;101916.72;;;4.93;74.14
10167;BME280;62970;53.130;8.244;2024-02-04T02:15:49;101908.88;;;4.89;74.46
10167;BME280;62970;53.130;8.244;2024-02-04T02:18:25;101902.78;;;4.85;74.19
10167;BME280;62970;53.130;8.244;2024-02-04T02:21:15;101919.97;;;4.82;74.09
10167;BME280;62970;53.130;8.244;2024-02-04T02:24:02;101914.69;;;4.77;74.12
10167;BME280;62970;53.130;8.244;2024-02-04T02:26:35;101912.00;;;4.72;74.70
10167;BME280;62970;53.130;8.244;2024-02-04T02:29:07;101916.28;;;4.70;74.54
10167;BME280;62970;53.130;8.244;2024-02-04T02:31:37;101916.22;;;4.67;74.92
10167;BME280;62970;53.130;8.244;2024-02-04T02:34:07;101912.72;;;4.64;74.69
10167;BME280;62970;53.130;8.244;2024-02-04T02:36:44;101911.81;;;4.62;74.71
10167;BME280;62970;53.130;8.244;2024-02-04T02:39:20;101897.09;;;4.58;74.68
10167;BME280;62970;53.130;8.244;2024-02-04T02:41:57;101895.28;;;4.54;74.96
10167;BME280;62970;53.130;8.244;2024-02-04T02:44:29;101890.97;;;4.53;74.64
10167;BME280;62970;53.130;8.244;2024-02-04T02:46:59;101884.88;;;4.49;74.73
10167;BME280;62970;53.130;8.244;2024-02-04T02:49:29;101883.06;;;4.45;74.85
10167;BME280;62970;53.130;8.244;2024-02-04T02:51:59;101878.72;;;4.42;74.76
10167;BME280;62970;53.130;8.244;2024-02-04T02:54:28;101883.81;;;4.39;75.16
10167;BME280;62970;53.130;8.244;2024-02-04T02:57:00;101877.75;;;4.37;74.87
10167;BME280;62970;53.130;8.244;2024-02-04T02:59:29;101870.81;;;4.35;74.96
10167;BME280;62970;53.130;8.244;2024-02-04T03:01:59;101874.22;;;4.32;75.48
10167;BME280;62970;53.130;8.244;2024-02-04T03:04:28;101867.31;;;4.31;75.32
10167;BME280;62970;53.130;8.244;2024-02-04T03:06:58;101882.78;;;4.30;75.43
10167;BME280;62970;53.130;8.244;2024-02-04T03:09:27;101887.03;;;4.28;75.20
10167;BME280;62970;53.130;8.244;2024-02-04T03:11:59;101880.97;;;4.26;75.37
10167;BME280;62970;53.130;8.244;2024-02-04T03:14:29;101878.41;;;4.26;75.64
10167;BME280;62970;53.130;8.244;2024-02-04T03:17:00;101877.50;;;4.24;75.49
10167;BME280;62970;53.130;8.244;2024-02-04T03:19:29;101870.59;;;4.23;75.66
10167;BME280;62970;53.130;8.244;2024-02-04T03:21:58;101871.41;;;4.20;75.32
10167;BME280;62970;53.130;8.244;2024-02-04T03:24:27;101871.38;;;4.19;75.40
10167;BME280;62970;53.130;8.244;2024-02-04T03:26:59;101876.47;;;4.16;75.84
10167;BME280;62970;53.130;8.244;2024-02-04T03:29:28;101874.72;;;4.15;75.55
10167;BME280;62970;53.130;8.244;2024-02-04T03:31:57;101881.56;;;4.13;75.53
10167;BME280;62970;53.130;8.244;2024-02-04T03:34:27;101891.88;;;4.11;75.47
10167;BME280;62970;53.130;8.244;2024-02-04T03:36:56;101878.94;;;4.09;76.06
10167;BME280;62970;53.130;8.244;2024-02-04T03:39:25;101866.84;;;4.08;75.66
10167;BME280;62970;53.130;8.244;2024-02-04T03:41:54;101871.19;;;4.09;76.08
10167;BME280;62970;53.130;8.244;2024-02-04T03:44:27;101873.75;;;4.09;76.33
10167;BME280;62970;53.130;8.244;2024-02-04T03:46:56;101870.38;;;4.12;75.91
10167;BME280;62970;53.130;8.244;2024-02-04T03:49:25;101881.56;;;4.13;76.02
10167;BME280;62970;53.130;8.244;2024-02-04T03:51:54;101873.81;;;4.11;76.30
10167;BME280;62970;53.130;8.244;2024-02-04T03:54:25;101888.44;;;4.12;76.40
10167;BME280;62970;53.130;8.244;2024-02-04T03:56:55;101878.13;;;4.12;76.06
10167;BME280;62970;53.130;8.244;2024-02-04T03:59:27;101889.31;;;4.13;76.37
10167;BME280;62970;53.130;8.244;2024-02-04T04:01:56;101879.00;;;4.13;76.17
10167;BME280;62970;53.130;8.244;2024-02-04T04:04:25;101898.84;;;4.15;76.47
10167;BME280;62970;53.130;8.244;2024-02-04T04:06:55;101884.22;;;4.16;76.56
10167;BME280;62970;53.130;8.244;2024-02-04T04:09:24;101877.38;;;4.18;76.44
10167;BME280;62970;53.130;8.244;2024-02-04T04:11:53;101872.25;;;4.19;76.22
10167;BME280;62970;53.130;8.244;2024-02-04T04:14:25;101871.41;;;4.20;76.37
10167;BME280;62970;53.130;8.244;2024-02-04T04:16:54;101860.22;;;4.21;76.52
10167;BME280;62970;53.130;8.244;2024-02-04T04:19:24;101884.34;;;4.22;76.53
10167;BME280;62970;53.130;8.244;2024-02-04T04:21:53;101884.34;;;4.22;76.30
10167;BME280;62970;53.130;8.244;2024-02-04T04:24:23;101883.53;;;4.24;76.50
10167;BME280;62970;53.130;8.244;2024-02-04T04:26:52;101885.25;;;4.24;76.22
10167;BME280;62970;53.130;8.244;2024-02-04T04:29:22;101880.06;;;4.24;76.56
10167;BME280;62970;53.130;8.244;2024-02-04T04:31:55;101892.13;;;4.23;76.42
10167;BME280;62970;53.130;8.244;2024-02-04T04:34:24;101889.56;;;4.25;75.90
10167;BME280;62970;53.130;8.244;2024-02-04T04:36:53;101873.19;;;4.24;76.22
10167;BME280;62970;53.130;8.244;2024-02-04T04:39:23;101874.94;;;4.25;75.81
10167;BME280;62970;53.130;8.244;2024-02-04T04:41:52;101877.47;;;4.22;76.05
10167;BME280;62970;53.130;8.244;2024-02-04T04:44:21;101874.84;;;4.21;76.22
10167;BME280;62970;53.130;8.244;2024-02-04T04:46:53;101862.78;;;4.20;75.98
10167;BME280;62970;53.130;8.244;2024-02-04T04:49:23;101877.38;;;4.18;76.31
10167;BME280;62970;53.130;8.244;2024-02-04T04:51:52;101881.66;;;4.17;76.11
10167;BME280;62970;53.130;8.244;2024-02-04T04:54:22;101869.63;;;4.18;76.24
10167;BME280;62970;53.130;8.244;2024-02-04T04:56:51;101854.13;;;4.18;76.48
10167;BME280;62970;53.130;8.244;2024-02-04T04:59:21;101847.28;;;4.20;76.13
10167;BME280;62970;53.130;8.244;2024-02-04T05:04:37;101870.56;;;4.21;76.16
10167;BME280;62970;53.130;8.244;2024-02-04T05:07:06;101869.75;;;4.24;76.34
10167;BME280;62970;53.130;8.244;2024-02-04T05:09:36;101863.75;;;4.25;76.24
10167;BME280;62970;53.130;8.244;2024-02-04T05:12:08;101872.34;;;4.25;76.22
10167;BME280;62970;53.130;8.244;2024-02-04T05:14:41;101869.78;;;4.25;75.96
10167;BME280;62970;53.130;8.244;2024-02-04T05:17:10;101856.91;;;4.27;76.13
10167;BME280;62970;53.130;8.244;2024-02-04T05:19:44;101853.47;;;4.28;76.06
10167;BME280;62970;53.130;8.244;2024-02-04T05:22:13;101842.34;;;4.30;76.61
10167;BME280;62970;53.130;8.244;2024-02-04T05:24:42;101844.94;;;4.32;76.44
10167;BME280;62970;53.130;8.244;2024-02-04T05:27:11;101834.66;;;4.33;76.20
10167;BME280;62970;53.130;8.244;2024-02-04T05:29:40;101832.13;;;4.36;76.28
10167;BME280;62970;53.130;8.244;2024-02-04T05:32:10;101838.19;;;4.38;76.35
10167;BME280;62970;53.130;8.244;2024-02-04T05:34:43;101808.91;;;4.38;76.24
10167;BME280;62970;53.130;8.244;2024-02-04T05:37:12;101818.41;;;4.40;76.53
10167;BME280;62970;53.130;8.244;2024-02-04T05:39:42;101816.72;;;4.41;76.15
10167;BME280;62970;53.130;8.244;2024-02-04T05:42:11;101816.75;;;4.42;76.55
10167;BME280;62970;53.130;8.244;2024-02-04T05:44:44;101811.56;;;4.42;76.11
10167;BME280;62970;53.130;8.244;2024-02-04T05:47:14;101830.56;;;4.45;76.41
10167;BME280;62970;53.130;8.244;2024-02-04T05:49:46;101827.13;;;4.46;76.19
10167;BME280;62970;53.130;8.244;2024-02-04T05:52:15;101817.72;;;4.49;76.28
10167;BME280;62970;53.130;8.244;2024-02-04T05:54:44;101819.44;;;4.50;76.23
10167;BME280;62970;53.130;8.244;2024-02-04T05:57:13;101809.16;;;4.52;76.51
10167;BME280;62970;53.130;8.244;2024-02-04T05:59:42;101807.47;;;4.54;76.22
10167;BME280;62970;53.130;8.244;2024-02-04T06:02:14;101824.69;;;4.55;76.67
10167;BME280;62970;53.130;8.244;2024-02-04T06:04:46;101822.16;;;4.56;76.43
10167;BME280;62970;53.130;8.244;2024-02-04T06:07:15;101813.59;;;4.59;76.64
10167;BME280;62970;53.130;8.244;2024-02-04T06:09:44;101807.59;;;4.61;76.50
10167;BME280;62970;53.130;8.244;2024-02-04T06:12:14;101796.47;;;4.65;76.28
10167;BME280;62970;53.130;8.244;2024-02-04T06:14:43;101787.88;;;4.66;76.19
10167;BME280;62970;53.130;8.244;2024-02-04T06:17:09;101782.75;;;4.69;76.16
10167;BME280;62970;53.130;8.244;2024-02-04T06:19:38;101793.16;;;4.72;76.63
10167;BME280;62970;53.130;8.244;2024-02-04T06:22:10;101787.13;;;4.73;76.48
10167;BME280;62970;53.130;8.244;2024-02-04T06:24:39;101790.63;;;4.77;76.30
10167;BME280;62970;53.130;8.244;2024-02-04T06:27:10;101790.66;;;4.79;76.12
10167;BME280;62970;53.130;8.244;2024-02-04T06:29:40;101780.38;;;4.80;76.10
10167;BME280;62970;53.130;8.244;2024-02-04T06:32:09;101781.25;;;4.81;76.58
10167;BME280;62970;53.130;8.244;2024-02-04T06:34:39;101783.00;;;4.82;76.11
10167;BME280;62970;53.130;8.244;2024-02-04T06:37:13;101782.16;;;4.83;76.29
10167;BME280;62970;53.130;8.244;2024-02-04T06:39:42;101785.66;;;4.86;76.36
10167;BME280;62970;53.130;8.244;2024-02-04T06:42:13;101773.59;;;4.87;76.20
10167;BME280;62970;53.130;8.244;2024-02-04T06:44:43;101775.34;;;4.89;76.43
10167;BME280;62970;53.130;8.244;2024-02-04T06:47:13;101772.81;;;4.92;76.52
10167;BME280;62970;53.130;8.244;2024-02-04T06:49:44;101795.25;;;4.95;76.45
10167;BME280;62970;53.130;8.244;2024-02-04T06:52:16;101795.31;;;4.98;76.39
10167;BME280;62970;53.130;8.244;2024-02-04T06:54:45;101777.28;;;5.02;76.62
10167;BME280;62970;53.130;8.244;2024-02-04T06:57:16;101777.31;;;5.04;76.60
10167;BME280;62970;53.130;8.244;2024-02-04T06:59:45;101781.69;;;5.08;76.43
10167;BME280;62970;53.130;8.244;2024-02-04T07:02:14;101781.69;;;5.10;76.47
10167;BME280;62970;53.130;8.244;2024-02-04T07:04:44;101767.94;;;5.12;76.26
10167;BME280;62970;53.130;8.244;2024-02-04T07:07:16;101772.28;;;5.15;76.20
10167;BME280;62970;53.130;8.244;2024-02-04T07:09:45;101768.88;;;5.17;76.04
10167;BME280;62970;53.130;8.244;2024-02-04T07:12:12;101774.09;;;5.20;75.99
10167;BME280;62970;53.130;8.244;2024-02-04T07:14:41;101762.91;;;5.21;76.09
10167;BME280;62970;53.130;8.244;2024-02-04T07:17:10;101751.72;;;5.24;76.29
10167;BME280;62970;53.130;8.244;2024-02-04T07:19:39;101750.03;;;5.26;76.14
10167;BME280;62970;53.130;8.244;2024-02-04T07:22:08;101756.97;;;5.28;76.30
10167;BME280;62970;53.130;8.244;2024-02-04T07:24:41;101751.81;;;5.30;75.83
10167;BME280;62970;53.130;8.244;2024-02-04T07:27:10;101752.75;;;5.33;76.19
10167;BME280;62970;53.130;8.244;2024-02-04T07:29:40;101755.34;;;5.33;76.25
10167;BME280;62970;53.130;8.244;2024-02-04T07:32:09;101745.88;;;5.35;75.90
10167;BME280;62970;53.130;8.244;2024-02-04T07:34:38;101741.59;;;5.36;76.22
10167;BME280;62970;53.130;8.244;2024-02-04T07:37:07;101749.38;;;5.37;75.83
10167;BME280;62970;53.130;8.244;2024-02-04T07:39:36;101734.69;;;5.36;75.72
10167;BME280;62970;53.130;8.244;2024-02-04T07:42:08;101730.38;;;5.35;75.77
10167;BME280;62970;53.130;8.244;2024-02-04T07:44:37;101736.41;;;5.36;75.91
10167;BME280;62970;53.130;8.244;2024-02-04T07:47:07;101716.59;;;5.36;75.72
10167;BME280;62970;53.130;8.244;2024-02-04T07:49:37;101714.88;;;5.38;76.14
10167;BME280;62970;53.130;8.244;2024-02-04T07:52:06;101732.16;;;5.41;75.86
10167;BME280;62970;53.130;8.244;2024-02-04T07:54:36;101734.78;;;5.43;76.11
10167;BME280;62970;53.130;8.244;2024-02-04T07:57:09;101733.06;;;5.45;76.09
10167;BME280;62970;53.130;8.244;2024-02-04T07:59:39;101726.22;;;5.48;75.67
10167;BME280;62970;53.130;8.244;2024-02-04T08:02:09;101735.75;;;5.52;75.75
10167;BME280;62970;53.130;8.244;2024-02-04T08:04:40;101736.66;;;5.54;75.88
10167;BME280;62970;53.130;8.244;2024-02-04T08:07:13;101739.28;;;5.57;75.99
10167;BME280;62970;53.130;8.244;2024-02-04T08:09:43;101747.97;;;5.62;75.53
10167;BME280;62970;53.130;8.244;2024-02-04T08:12:15;101748.84;;;5.64;75.64
10167;BME280;62970;53.130;8.244;2024-02-04T08:14:45;101753.25;;;5.72;76.12
10167;BME280;62970;53.130;8.244;2024-02-04T08:17:14;101765.41;;;5.80;76.24
10167;BME280;62970;53.130;8.244;2024-02-04T08:19:43;101769.81;;;5.87;75.80
10167;BME280;62970;53.130;8.244;2024-02-04T08:22:13;101746.59;;;5.95;75.73
10167;BME280;62970;53.130;8.244;2024-02-04T08:24:44;101748.38;;;6.00;75.69
10167;BME280;62970;53.130;8.244;2024-02-04T08:27:17;101754.50;;;6.09;75.83
10167;BME280;62970;53.130;8.244;2024-02-04T08:29:47;101755.44;;;6.15;75.71
10167;BME280;62970;53.130;8.244;2024-02-04T08:32:16;101744.28;;;6.22;75.66
10167;BME280;62970;53.130;8.244;2024-02-04T08:34:46;101749.53;;;6.30;75.75
10167;BME280;62970;53.130;8.244;2024-02-04T08:37:15;101738.38;;;6.37;76.09
10167;BME280;62970;53.130;8.244;2024-02-04T08:39:48;101738.44;;;6.42;75.27
10167;BME280;62970;53.130;8.244;2024-02-04T08:42:21;101746.25;;;6.46;75.38
10167;BME280;62970;53.130;8.244;2024-02-04T08:44:50;101746.25;;;6.49;75.09
10167;BME280;62970;53.130;8.244;2024-02-04T08:47:20;101744.53;;;6.50;74.56
10167;BME280;62970;53.130;8.244;2024-02-04T08:49:49;101754.88;;;6.48;74.53
10167;BME280;62970;53.130;8.244;2024-02-04T08:52:19;101756.63;;;6.48;74.33
10167;BME280;62970;53.130;8.244;2024-02-04T08:54:49;101749.72;;;6.48;74.78
10167;BME280;62970;53.130;8.244;2024-02-04T08:57:21;101747.97;;;6.47;74.56
10167;BME280;62970;53.130;8.244;2024-02-04T08:59:51;101739.34;;;6.48;73.97
10167;BME280;62970;53.130;8.244;2024-02-04T09:02:21;101740.22;;;6.49;74.51
10167;BME280;62970;53.130;8.244;2024-02-04T09:04:50;101747.13;;;6.50;74.28
10167;BME280;62970;53.130;8.244;2024-02-04T09:07:20;101739.38;;;6.53;74.22
10167;BME280;62970;53.130;8.244;2024-02-04T09:09:49;101737.66;;;6.55;74.17
10167;BME280;62970;53.130;8.244;2024-02-04T09:12:24;101749.78;;;6.57;74.07
10167;BME280;62970;53.130;8.244;2024-02-04T09:14:53;101748.94;;;6.60;74.32
10167;BME280;62970;53.130;8.244;2024-02-04T09:17:23;101761.94;;;6.63;74.07
10167;BME280;62970;53.130;8.244;2024-02-04T09:19:53;101747.28;;;6.66;74.37
10167;BME280;62970;53.130;8.244;2024-02-04T09:22:22;101750.75;;;6.68;74.14
10167;BME280;62970;53.130;8.244;2024-02-04T09:24:52;101746.44;;;6.71;74.10
10167;BME280;62970;53.130;8.244;2024-02-04T09:27:24;101744.72;;;6.73;73.95
10167;BME280;62970;53.130;8.244;2024-02-04T09:29:53;101750.78;;;6.76;73.61
10167;BME280;62970;53.130;8.244;2024-02-04T09:32:24;101749.94;;;6.79;73.91
10167;BME280;62970;53.130;8.244;2024-02-04T09:34:54;101750.84;;;6.84;73.42
10167;BME280;62970;53.130;8.244;2024-02-04T09:37:24;101739.63;;;6.86;73.82
10167;BME280;62970;53.130;8.244;2024-02-04T09:39:53;101733.63;;;6.90;73.32
10167;BME280;62970;53.130;8.244;2024-02-04T09:42:25;101725.00;;;6.93;73.81
10167;BME280;62970;53.130;8.244;2024-02-04T09:44:55;101734.53;;;6.97;73.77
10167;BME280;62970;53.130;8.244;2024-02-04T09:47:25;101733.69;;;7.03;73.30
10167;BME280;62970;53.130;8.244;2024-02-04T09:49:55;101727.66;;;7.07;73.66
10167;BME280;62970;53.130;8.244;2024-02-04T09:52:29;101739.78;;;7.11;72.88
10167;BME280;62970;53.130;8.244;2024-02-04T09:55:01;101747.59;;;7.15;73.47
10167;BME280;62970;53.130;8.244;2024-02-04T09:57:35;101752.78;;;7.17;73.46
10167;BME280;62970;53.130;8.244;2024-02-04T10:00:06;101744.22;;;7.22;72.67
10167;BME280;62970;53.130;8.244;2024-02-04T10:02:36;101727.81;;;7.25;73.16
10167;BME280;62970;53.130;8.244;2024-02-04T10:05:07;101736.47;;;7.28;72.83
10167;BME280;62970;53.130;8.244;2024-02-04T10:07:37;101740.81;;;7.32;72.95
10167;BME280;62970;53.130;8.244;2024-02-04T10:10:08;101730.47;;;7.37;72.58
10167;BME280;62970;53.130;8.244;2024-02-04T10:12:41;101733.94;;;7.39;72.61
10167;BME280;62970;53.130;8.244;2024-02-04T10:15:10;101735.72;;;7.43;72.43
10167;BME280;62970;53.130;8.244;2024-02-04T10:17:43;101734.00;;;7.47;72.23
10167;BME280;62970;53.130;8.244;2024-02-04T10:20:14;101733.16;;;7.51;72.15
10167;BME280;62970;53.130;8.244;2024-02-04T10:22:43;101737.47;;;7.55;72.43
10167;BME280;62970;53.130;8.244;2024-02-04T10:25:13;101733.16;;;7.57;72.26
10167;BME280;62970;53.130;8.244;2024-02-04T10:27:46;101732.28;;;7.55;72.09
10167;BME280;62970;53.130;8.244;2024-02-04T10:30:15;101721.91;;;7.55;71.56
10167;BME280;62970;53.130;8.244;2024-02-04T10:32:47;101740.09;;;7.56;71.63
10167;BME280;62970;53.130;8.244;2024-02-04T10:35:21;101743.56;;;7.58;72.32
10167;BME280;62970;53.130;8.244;2024-02-04T10:37:50;101735.78;;;7.60;71.53
10167;BME280;62970;53.130;8.244;2024-02-04T10:40:22;101721.94;;;7.61;71.96
10167;BME280;62970;53.130;8.244;2024-02-04T10:43:00;101722.81;;;7.65;72.30
10167;BME280;62970;53.130;8.244;2024-02-04T10:45:33;101718.50;;;7.71;72.07
10167;BME280;62970;53.130;8.244;2024-02-04T10:48:08;101731.50;;;7.79;71.95
10167;BME280;62970;53.130;8.244;2024-02-04T10:50:38;101728.94;;;7.86;72.11
10167;BME280;62970;53.130;8.244;2024-02-04T10:53:09;101735.88;;;7.92;71.57
10167;BME280;62970;53.130;8.244;2024-02-04T10:55:42;101723.78;;;7.97;71.68
10167;BME280;62970;53.130;8.244;2024-02-04T10:58:16;101726.38;;;8.03;71.50
10167;BME280;62970;53.130;8.244;2024-02-04T11:00:46;101710.78;;;8.06;71.33
10167;BME280;62970;53.130;8.244;2024-02-04T11:03:16;101739.38;;;8.08;70.63
10167;BME280;62970;53.130;8.244;2024-02-04T11:05:47;101740.25;;;8.10;70.81
10167;BME280;62970;53.130;8.244;2024-02-04T11:08:17;101730.72;;;8.16;70.93
10167;BME280;62970;53.130;8.244;2024-02-04T11:10:47;101735.06;;;8.20;70.91
10167;BME280;62970;53.130;8.244;2024-02-04T11:13:23;101720.34;;;8.24;71.34
10167;BME280;62970;53.130;8.244;2024-02-04T11:15:54;101725.53;;;8.28;70.68
10167;BME280;62970;53.130;8.244;2024-02-04T11:18:42;101716.88;;;8.34;71.24
10167;BME280;62970;53.130;8.244;2024-02-04T11:21:46;101713.44;;;8.41;70.93
10167;BME280;62970;53.130;8.244;2024-02-04T11:24:36;101708.22;;;8.43;70.55
10167;BME280;62970;53.130;8.244;2024-02-04T11:27:09;101703.91;;;8.45;70.59
10167;BME280;62970;53.130;8.244;2024-02-04T11:29:42;101698.69;;;8.45;70.76
10167;BME280;62970;53.130;8.244;2024-02-04T11:32:12;101706.50;;;8.46;70.09
10167;BME280;62970;53.130;8.244;2024-02-04T11:34:41;101708.22;;;8.46;70.12
10167;BME280;62970;53.130;8.244;2024-02-04T11:37:20;101704.75;;;8.44;70.13
10167;BME280;62970;53.130;8.244;2024-02-04T11:39:54;101699.56;;;8.42;69.75
10167;BME280;62970;53.130;8.244;2024-02-04T11:42:32;101698.69;;;8.40;70.06
10167;BME280;62970;53.130;8.244;2024-02-04T11:45:13;101703.91;;;8.37;70.23
10167;BME280;62970;53.130;8.244;2024-02-04T11:47:43;101706.50;;;8.37;69.77
10167;BME280;62970;53.130;8.244;2024-02-04T11:50:12;101710.81;;;8.38;70.24
10167;BME280;62970;53.130;8.244;2024-02-04T11:52:41;101709.09;;;8.40;70.14
10167;BME280;62970;53.130;8.244;2024-02-04T11:55:16;101702.16;;;8.41;70.35
10167;BME280;62970;53.130;8.244;2024-02-04T11:57:45;101704.75;;;8.42;69.57
10167;BME280;62970;53.130;8.244;2024-02-04T12:00:18;101706.50;;;8.43;69.98
10167;BME280;62970;53.130;8.244;2024-02-04T12:02:47;101709.09;;;8.46;70.10
10167;BME280;62970;53.130;8.244;2024-02-04T12:05:16;101698.69;;;8.45;69.71
10167;BME280;62970;53.130;8.244;2024-02-04T12:07:46;101692.63;;;8.44;69.77
10167;BME280;62970;53.130;8.244;2024-02-04T12:10:15;101703.91;;;8.45;69.58
10167;BME280;62970;53.130;8.244;2024-02-04T12:12:45;101706.50;;;8.43;69.57
10167;BME280;62970;53.130;8.244;2024-02-04T12:15:17;101708.22;;;8.41;69.96
10167;BME280;62970;53.130;8.244;2024-02-04T12:17:46;101700.44;;;8.40;69.86
10167;BME280;62970;53.130;8.244;2024-02-04T12:20:16;101694.38;;;8.39;69.23
10167;BME280;62970;53.130;8.244;2024-02-04T12:22:45;101689.16;;;8.38;69.25
10167;BME280;62970;53.130;8.244;2024-02-04T12:25:15;101690.91;;;8.36;69.18
10167;BME280;62970;53.130;8.244;2024-02-04T12:27:45;101670.13;;;8.36;69.43
10167;BME280;62970;53.130;8.244;2024-02-04T12:30:17;101683.09;;;8.34;69.23
10167;BME280;62970;53.130;8.244;2024-02-04T12:32:56;101681.38;;;8.32;69.19
10167;BME280;62970;53.130;8.244;2024-02-04T12:35:26;101684.84;;;8.31;69.35
10167;BME280;62970;53.130;8.244;2024-02-04T12:37:57;101677.91;;;8.26;69.38
10167;BME280;62970;53.130;8.244;2024-02-04T12:40:28;101677.03;;;8.24;69.06
10167;BME280;62970;53.130;8.244;2024-02-04T12:42:59;101680.50;;;8.20;69.34
10167;BME280;62970;53.130;8.244;2024-02-04T12:45:32;101681.38;;;8.18;69.03
10167;BME280;62970;53.130;8.244;2024-02-04T12:48:02;101670.97;;;8.16;69.55
10167;BME280;62970;53.130;8.244;2024-02-04T12:50:31;101673.56;;;8.15;69.17
10167;BME280;62970;53.130;8.244;2024-02-04T12:53:05;101675.31;;;8.13;69.47
10167;BME280;62970;53.130;8.244;2024-02-04T12:55:35;101672.69;;;8.10;69.52
10167;BME280;62970;53.130;8.244;2024-02-04T13:01:00;101669.22;;;8.03;69.67
10167;BME280;62970;53.130;8.244;2024-02-04T13:03:31;101672.69;;;8.02;69.08
10167;BME280;62970;53.130;8.244;2024-02-04T13:06:00;101668.38;;;8.00;69.17
10167;BME280;62970;53.130;8.244;2024-02-04T13:08:30;101642.38;;;7.98;69.19
10167;BME280;62970;53.130;8.244;2024-02-04T13:10:57;101656.25;;;7.99;69.43
10167;BME280;62970;53.130;8.244;2024-02-04T13:13:27;101647.59;;;8.01;69.91
10167;BME280;62970;53.130;8.244;2024-02-04T13:15:58;101657.13;;;8.04;69.91
10167;BME280;62970;53.130;8.244;2024-02-04T13:18:28;101657.13;;;8.05;69.32
10167;BME280;62970;53.130;8.244;2024-02-04T13:20:57;101657.13;;;8.07;69.44
10167;BME280;62970;53.130;8.244;2024-02-04T13:23:26;101658.84;;;8.06;69.14
10167;BME280;62970;53.130;8.244;2024-02-04T13:25:56;101650.19;;;8.07;69.42
10167;BME280;62970;53.130;8.244;2024-02-04T13:28:26;101651.06;;;8.09;69.33